sutton.com alexa rank chart, sutton.com alexa rank daily changes

sutton.com alexa rank chart, sutton.com alexa rank daily changes

sutton.com
Actual rank:
743 322

RANK HISTORY

Date Rank Diff
2017/12/15 743 322 +22 175
2017/12/14 721 147 +29 131
2017/12/13 692 016 -25 512
2017/12/12 717 528 +49 624
2017/12/11 667 904 +24 688
2017/12/10 643 216 +16 514
2017/12/09 626 702 +33 267
2017/12/08 593 435 +14 415
2017/12/07 579 020 +11 758
2017/12/06 567 262 +2 551
2017/12/05 564 711 +19 003
2017/12/04 545 708 +11 427
2017/12/03 534 281 -881
2017/12/02 535 162 -12 903
2017/12/01 548 065 -25 773
2017/11/30 573 838 +19 293
2017/11/29 554 545 +8 705
2017/11/28 545 840 +15 095
2017/11/27 530 745 +14 926
2017/11/26 515 819 -1 459
2017/11/25 517 278 +15 274
2017/11/24 502 004 +2 527
2017/11/23 499 477 +12 405
2017/11/22 487 072 +3 330
2017/11/21 483 742 -6 968
2017/11/20 490 710 +5 794
2017/11/19 484 916 +1 270
2017/11/18 483 646 +6 915
2017/11/17 476 731 +16 272
2017/11/16 460 459 -5 698
2017/11/15 466 157 +5 585
2017/11/14 460 572 +8 915
2017/11/13 451 657 +12 836
2017/11/12 438 821 -13 242
2017/11/11 452 063 +1 309
2017/11/10 450 754 -3 325
2017/11/09 454 079 -28 025
2017/11/08 482 104 -9 082
2017/11/07 491 186 +19 770
2017/11/06 471 416 +7 139
2017/11/05 464 277 -9 713
2017/11/04 473 990 +28 213
2017/11/03 445 777 +8 347
2017/11/02 437 430 -6 760
2017/11/01 444 190 +8 846
2017/10/31 435 344 +13 001
2017/10/30 422 343 -76
2017/10/29 422 419 +60 210
2017/10/28 362 209 +11 814
2017/10/27 350 395 -1 121
2017/10/26 351 516 +15 597
2017/10/25 335 919 -4
2017/10/24 335 923 +6 747
2017/10/23 329 176 -1 214
2017/10/22 330 390 +7 899
2017/10/21 322 491 +7 297
2017/10/20 315 194 +4 123
2017/10/19 311 071 +14 218
2017/10/18 296 853 +8 388
2017/10/17 288 465 +5 580
2017/10/16 282 885

WIDGET FOR YOUR SITE

DOMAINS WITH THE NEAREST RANK

Domain Rank
travel-images.com 743 317
web-rentacar.com 743 318
aws-border.com 743 319
xxhuyuzero.jp 743 320
plexearth.com 743 321
sutton.com 743 322
mailxpert.ch 743 323
kinetictextanimator.com 743 324
pekarkonditer.com.ua 743 325
digitalmediaghost.com 743 326
spsj.or.jp 743 327

DOMAINS WITH THE NEAREST RANK BY TLD .com

Domain Rank
harmonyhonda.com 743 316
travel-images.com 743 317
web-rentacar.com 743 318
aws-border.com 743 319
plexearth.com 743 321
sutton.com 743 322
kinetictextanimator.com 743 324
digitalmediaghost.com 743 326
338cf.com 743 331
eurogrands.com 743 332
arab-oil-naturalgas.com 743 334